sensor_id;sensor_type;location;lat;lon;timestamp;temperature;humidity
40638;DHT22;26336;44.696;10.622;2023-04-24T00:02:17;17.40;93.50
40638;DHT22;26336;44.696;10.622;2023-04-24T00:05:22;17.30;93.50
40638;DHT22;26336;44.696;10.622;2023-04-24T00:08:26;17.20;93.60
40638;DHT22;26336;44.696;10.622;2023-04-24T00:11:29;17.10;93.70
40638;DHT22;26336;44.696;10.622;2023-04-24T00:14:33;17.10;94.00
40638;DHT22;26336;44.696;10.622;2023-04-24T00:17:38;17.20;94.40
40638;DHT22;26336;44.696;10.622;2023-04-24T00:20:42;17.20;94.10
40638;DHT22;26336;44.696;10.622;2023-04-24T00:23:47;17.10;94.30
40638;DHT22;26336;44.696;10.622;2023-04-24T00:26:51;17.20;94.50
40638;DHT22;26336;44.696;10.622;2023-04-24T00:29:55;17.00;95.40
40638;DHT22;26336;44.696;10.622;2023-04-24T00:32:58;16.80;97.20
40638;DHT22;26336;44.696;10.622;2023-04-24T00:36:02;16.70;98.60
40638;DHT22;26336;44.696;10.622;2023-04-24T00:39:06;16.40;99.90
40638;DHT22;26336;44.696;10.622;2023-04-24T00:42:12;16.10;99.90
40638;DHT22;26336;44.696;10.622;2023-04-24T00:45:16;16.00;99.90
40638;DHT22;26336;44.696;10.622;2023-04-24T00:48:20;16.00;99.90
40638;DHT22;26336;44.696;10.622;2023-04-24T00:51:24;15.90;99.90
40638;DHT22;26336;44.696;10.622;2023-04-24T00:54:28;16.10;99.90
40638;DHT22;26336;44.696;10.622;2023-04-24T00:57:31;16.00;99.90
40638;DHT22;26336;44.696;10.622;2023-04-24T01:00:35;16.20;99.90
40638;DHT22;26336;44.696;10.622;2023-04-24T01:03:39;16.30;99.90
40638;DHT22;26336;44.696;10.622;2023-04-24T01:06:43;16.40;99.90
40638;DHT22;26336;44.696;10.622;2023-04-24T01:09:48;16.40;99.90
40638;DHT22;26336;44.696;10.622;2023-04-24T01:12:55;16.30;99.90
40638;DHT22;26336;44.696;10.622;2023-04-24T01:15:59;16.10;99.90
40638;DHT22;26336;44.696;10.622;2023-04-24T01:19:07;15.90;99.90
40638;DHT22;26336;44.696;10.622;2023-04-24T01:22:14;15.80;99.90
40638;DHT22;26336;44.696;10.622;2023-04-24T01:25:18;15.60;99.90
40638;DHT22;26336;44.696;10.622;2023-04-24T01:28:22;15.40;99.90
40638;DHT22;26336;44.696;10.622;2023-04-24T01:31:26;15.20;99.90
40638;DHT22;26336;44.696;10.622;2023-04-24T01:34:29;15.10;99.90
40638;DHT22;26336;44.696;10.622;2023-04-24T01:37:34;15.00;99.90
40638;DHT22;26336;44.696;10.622;2023-04-24T01:40:37;14.90;99.90
40638;DHT22;26336;44.696;10.622;2023-04-24T01:43:41;14.80;99.90
40638;DHT22;26336;44.696;10.622;2023-04-24T01:46:44;14.80;99.90
40638;DHT22;26336;44.696;10.622;2023-04-24T01:49:48;14.90;99.90
40638;DHT22;26336;44.696;10.622;2023-04-24T01:52:52;15.00;99.90
40638;DHT22;26336;44.696;10.622;2023-04-24T01:55:55;15.20;99.90
40638;DHT22;26336;44.696;10.622;2023-04-24T01:58:59;15.30;99.90
40638;DHT22;26336;44.696;10.622;2023-04-24T02:02:03;15.40;99.90
40638;DHT22;26336;44.696;10.622;2023-04-24T02:05:07;15.50;99.90
40638;DHT22;26336;44.696;10.622;2023-04-24T02:08:13;15.60;99.90
40638;DHT22;26336;44.696;10.622;2023-04-24T02:11:16;15.70;99.90
40638;DHT22;26336;44.696;10.622;2023-04-24T02:14:20;15.80;99.90
40638;DHT22;26336;44.696;10.622;2023-04-24T02:17:24;15.80;99.90
40638;DHT22;26336;44.696;10.622;2023-04-24T02:20:28;15.80;99.90
40638;DHT22;26336;44.696;10.622;2023-04-24T02:23:31;15.60;99.90
40638;DHT22;26336;44.696;10.622;2023-04-24T02:26:34;15.60;99.90
40638;DHT22;26336;44.696;10.622;2023-04-24T02:29:39;15.70;99.90
40638;DHT22;26336;44.696;10.622;2023-04-24T02:32:42;15.80;99.90
40638;DHT22;26336;44.696;10.622;2023-04-24T02:35:48;15.80;99.90
40638;DHT22;26336;44.696;10.622;2023-04-24T02:38:52;15.90;99.90
40638;DHT22;26336;44.696;10.622;2023-04-24T02:41:56;15.90;99.90
40638;DHT22;26336;44.696;10.622;2023-04-24T02:45:00;16.00;99.90
40638;DHT22;26336;44.696;10.622;2023-04-24T02:48:03;15.90;99.90
40638;DHT22;26336;44.696;10.622;2023-04-24T02:51:07;16.00;99.90
40638;DHT22;26336;44.696;10.622;2023-04-24T02:54:10;16.00;99.90
40638;DHT22;26336;44.696;10.622;2023-04-24T02:57:14;16.00;99.90
40638;DHT22;26336;44.696;10.622;2023-04-24T03:00:19;16.00;99.90
40638;DHT22;26336;44.696;10.622;2023-04-24T03:03:23;16.00;99.90
40638;DHT22;26336;44.696;10.622;2023-04-24T03:06:28;16.00;99.90
40638;DHT22;26336;44.696;10.622;2023-04-24T03:09:32;15.80;99.90
40638;DHT22;26336;44.696;10.622;2023-04-24T03:12:35;15.70;99.90
40638;DHT22;26336;44.696;10.622;2023-04-24T03:15:40;15.40;99.90
40638;DHT22;26336;44.696;10.622;2023-04-24T03:18:43;15.20;99.90
40638;DHT22;26336;44.696;10.622;2023-04-24T03:21:47;15.20;99.90
40638;DHT22;26336;44.696;10.622;2023-04-24T03:24:51;15.30;99.90
40638;DHT22;26336;44.696;10.622;2023-04-24T03:27:55;15.20;99.90
40638;DHT22;26336;44.696;10.622;2023-04-24T03:31:20;15.10;99.90
40638;DHT22;26336;44.696;10.622;2023-04-24T03:34:24;15.20;99.90
40638;DHT22;26336;44.696;10.622;2023-04-24T03:37:28;15.30;99.90
40638;DHT22;26336;44.696;10.622;2023-04-24T03:40:44;15.40;99.90
40638;DHT22;26336;44.696;10.622;2023-04-24T03:44:00;15.50;99.90
40638;DHT22;26336;44.696;10.622;2023-04-24T03:47:04;15.50;99.90
40638;DHT22;26336;44.696;10.622;2023-04-24T03:50:08;15.50;99.90
40638;DHT22;26336;44.696;10.622;2023-04-24T03:53:12;15.50;99.90
40638;DHT22;26336;44.696;10.622;2023-04-24T03:56:18;15.50;99.90
40638;DHT22;26336;44.696;10.622;2023-04-24T03:59:21;15.60;99.90
40638;DHT22;26336;44.696;10.622;2023-04-24T04:02:36;15.60;99.90
40638;DHT22;26336;44.696;10.622;2023-04-24T04:05:41;15.60;99.90
40638;DHT22;26336;44.696;10.622;2023-04-24T04:08:45;15.60;99.90
40638;DHT22;26336;44.696;10.622;2023-04-24T04:11:48;15.60;99.90
40638;DHT22;26336;44.696;10.622;2023-04-24T04:14:51;15.60;99.90
40638;DHT22;26336;44.696;10.622;2023-04-24T04:17:55;15.60;99.90
40638;DHT22;26336;44.696;10.622;2023-04-24T04:20:59;15.50;99.90
40638;DHT22;26336;44.696;10.622;2023-04-24T04:24:04;15.50;99.90
40638;DHT22;26336;44.696;10.622;2023-04-24T04:27:13;15.50;99.90
40638;DHT22;26336;44.696;10.622;2023-04-24T04:30:43;15.50;99.90
40638;DHT22;26336;44.696;10.622;2023-04-24T04:33:47;15.50;99.90
40638;DHT22;26336;44.696;10.622;2023-04-24T04:36:51;15.50;99.90
40638;DHT22;26336;44.696;10.622;2023-04-24T04:40:15;15.40;99.90
40638;DHT22;26336;44.696;10.622;2023-04-24T04:43:28;15.40;99.90
40638;DHT22;26336;44.696;10.622;2023-04-24T04:46:32;15.40;99.90
40638;DHT22;26336;44.696;10.622;2023-04-24T04:49:44;15.30;99.90
40638;DHT22;26336;44.696;10.622;2023-04-24T04:52:54;15.40;99.90
40638;DHT22;26336;44.696;10.622;2023-04-24T04:56:05;15.40;99.90
40638;DHT22;26336;44.696;10.622;2023-04-24T04:59:16;15.30;99.90
40638;DHT22;26336;44.696;10.622;2023-04-24T05:02:20;15.30;99.90
40638;DHT22;26336;44.696;10.622;2023-04-24T05:05:23;15.30;99.90
40638;DHT22;26336;44.696;10.622;2023-04-24T05:08:27;15.30;99.90
40638;DHT22;26336;44.696;10.622;2023-04-24T05:11:31;15.30;99.90
40638;DHT22;26336;44.696;10.622;2023-04-24T05:14:37;15.20;99.90
40638;DHT22;26336;44.696;10.622;2023-04-24T05:17:41;15.20;99.90
40638;DHT22;26336;44.696;10.622;2023-04-24T05:20:46;15.20;99.90
40638;DHT22;26336;44.696;10.622;2023-04-24T05:23:50;15.20;99.90
40638;DHT22;26336;44.696;10.622;2023-04-24T05:27:02;15.20;99.90
40638;DHT22;26336;44.696;10.622;2023-04-24T05:30:13;15.10;99.90
40638;DHT22;26336;44.696;10.622;2023-04-24T05:33:16;15.10;99.90
40638;DHT22;26336;44.696;10.622;2023-04-24T05:36:21;15.10;99.90
40638;DHT22;26336;44.696;10.622;2023-04-24T05:39:25;15.10;99.90
40638;DHT22;26336;44.696;10.622;2023-04-24T05:42:30;15.10;99.90
40638;DHT22;26336;44.696;10.622;2023-04-24T05:45:34;14.80;99.90
40638;DHT22;26336;44.696;10.622;2023-04-24T05:48:39;14.60;99.90
40638;DHT22;26336;44.696;10.622;2023-04-24T05:51:43;14.70;99.90
40638;DHT22;26336;44.696;10.622;2023-04-24T05:54:48;14.80;99.90
40638;DHT22;26336;44.696;10.622;2023-04-24T05:57:56;14.90;99.90
40638;DHT22;26336;44.696;10.622;2023-04-24T06:01:01;14.80;99.90
40638;DHT22;26336;44.696;10.622;2023-04-24T06:04:06;14.80;99.90
40638;DHT22;26336;44.696;10.622;2023-04-24T06:07:10;14.80;99.90
40638;DHT22;26336;44.696;10.622;2023-04-24T06:10:14;14.80;99.90
40638;DHT22;26336;44.696;10.622;2023-04-24T06:13:21;14.80;99.90
40638;DHT22;26336;44.696;10.622;2023-04-24T06:16:45;14.80;99.90
40638;DHT22;26336;44.696;10.622;2023-04-24T06:19:58;14.80;99.90
40638;DHT22;26336;44.696;10.622;2023-04-24T06:23:02;14.90;99.90
40638;DHT22;26336;44.696;10.622;2023-04-24T06:26:06;14.90;99.90
40638;DHT22;26336;44.696;10.622;2023-04-24T06:29:09;15.00;99.90
40638;DHT22;26336;44.696;10.622;2023-04-24T06:32:16;15.00;99.90
40638;DHT22;26336;44.696;10.622;2023-04-24T06:35:19;15.10;99.90
40638;DHT22;26336;44.696;10.622;2023-04-24T06:38:23;15.20;99.90
40638;DHT22;26336;44.696;10.622;2023-04-24T06:41:28;15.20;99.90
40638;DHT22;26336;44.696;10.622;2023-04-24T06:44:32;15.30;99.90
40638;DHT22;26336;44.696;10.622;2023-04-24T06:47:36;15.30;99.90
40638;DHT22;26336;44.696;10.622;2023-04-24T06:50:39;15.30;99.90
40638;DHT22;26336;44.696;10.622;2023-04-24T06:53:43;15.40;99.90
40638;DHT22;26336;44.696;10.622;2023-04-24T06:56:47;15.40;99.90
40638;DHT22;26336;44.696;10.622;2023-04-24T06:59:52;15.50;99.90
40638;DHT22;26336;44.696;10.622;2023-04-24T07:02:55;15.50;99.90
40638;DHT22;26336;44.696;10.622;2023-04-24T07:06:00;15.60;99.90
40638;DHT22;26336;44.696;10.622;2023-04-24T07:09:04;15.60;99.90
40638;DHT22;26336;44.696;10.622;2023-04-24T07:12:08;15.70;99.90
40638;DHT22;26336;44.696;10.622;2023-04-24T07:15:12;15.70;99.90
40638;DHT22;26336;44.696;10.622;2023-04-24T07:18:16;15.80;99.90
40638;DHT22;26336;44.696;10.622;2023-04-24T07:21:20;15.80;99.90
40638;DHT22;26336;44.696;10.622;2023-04-24T07:24:24;15.80;99.90
40638;DHT22;26336;44.696;10.622;2023-04-24T07:27:27;15.90;99.90
40638;DHT22;26336;44.696;10.622;2023-04-24T07:30:31;15.90;99.90
40638;DHT22;26336;44.696;10.622;2023-04-24T07:33:36;15.90;99.90
40638;DHT22;26336;44.696;10.622;2023-04-24T07:36:40;15.90;99.90
40638;DHT22;26336;44.696;10.622;2023-04-24T07:39:44;16.00;99.90
40638;DHT22;26336;44.696;10.622;2023-04-24T07:42:48;16.00;99.90
40638;DHT22;26336;44.696;10.622;2023-04-24T07:45:52;16.00;99.90
40638;DHT22;26336;44.696;10.622;2023-04-24T07:48:56;16.00;99.90
40638;DHT22;26336;44.696;10.622;2023-04-24T07:52:00;16.00;99.90
40638;DHT22;26336;44.696;10.622;2023-04-24T07:55:06;16.10;99.90
40638;DHT22;26336;44.696;10.622;2023-04-24T07:58:10;16.10;99.90
40638;DHT22;26336;44.696;10.622;2023-04-24T08:01:14;16.10;99.90
40638;DHT22;26336;44.696;10.622;2023-04-24T08:04:18;16.10;99.90
40638;DHT22;26336;44.696;10.622;2023-04-24T08:07:22;16.10;99.90
40638;DHT22;26336;44.696;10.622;2023-04-24T08:10:26;16.20;99.90
40638;DHT22;26336;44.696;10.622;2023-04-24T08:13:30;16.20;99.90
40638;DHT22;26336;44.696;10.622;2023-04-24T08:16:34;16.30;99.90
40638;DHT22;26336;44.696;10.622;2023-04-24T08:19:39;16.30;99.90
40638;DHT22;26336;44.696;10.622;2023-04-24T08:22:46;16.40;99.90
40638;DHT22;26336;44.696;10.622;2023-04-24T08:25:51;16.40;99.90
40638;DHT22;26336;44.696;10.622;2023-04-24T08:28:55;16.50;99.90
40638;DHT22;26336;44.696;10.622;2023-04-24T08:31:59;16.50;99.90
40638;DHT22;26336;44.696;10.622;2023-04-24T08:35:03;16.60;99.90
40638;DHT22;26336;44.696;10.622;2023-04-24T08:38:07;16.70;99.90
40638;DHT22;26336;44.696;10.622;2023-04-24T08:41:11;16.80;99.90
40638;DHT22;26336;44.696;10.622;2023-04-24T08:44:15;16.80;99.90
40638;DHT22;26336;44.696;10.622;2023-04-24T08:47:19;16.90;99.90
40638;DHT22;26336;44.696;10.622;2023-04-24T08:50:23;17.00;99.90
40638;DHT22;26336;44.696;10.622;2023-04-24T08:53:28;17.00;99.90
40638;DHT22;26336;44.696;10.622;2023-04-24T08:56:31;17.10;99.90
40638;DHT22;26336;44.696;10.622;2023-04-24T08:59:36;17.20;99.90
40638;DHT22;26336;44.696;10.622;2023-04-24T09:02:41;17.30;99.90
40638;DHT22;26336;44.696;10.622;2023-04-24T09:05:47;17.30;99.90
40638;DHT22;26336;44.696;10.622;2023-04-24T09:08:51;17.30;99.90
40638;DHT22;26336;44.696;10.622;2023-04-24T09:11:57;17.30;99.90
40638;DHT22;26336;44.696;10.622;2023-04-24T09:15:02;17.30;99.90
40638;DHT22;26336;44.696;10.622;2023-04-24T09:18:06;17.40;99.90
40638;DHT22;26336;44.696;10.622;2023-04-24T09:21:10;17.40;99.90
40638;DHT22;26336;44.696;10.622;2023-04-24T09:24:17;17.40;99.90
40638;DHT22;26336;44.696;10.622;2023-04-24T09:27:22;17.50;99.90
40638;DHT22;26336;44.696;10.622;2023-04-24T09:30:26;17.50;99.90
40638;DHT22;26336;44.696;10.622;2023-04-24T09:33:29;17.60;99.90
40638;DHT22;26336;44.696;10.622;2023-04-24T09:36:34;17.70;99.90
40638;DHT22;26336;44.696;10.622;2023-04-24T09:39:40;17.80;99.90
40638;DHT22;26336;44.696;10.622;2023-04-24T09:42:44;17.80;99.90
40638;DHT22;26336;44.696;10.622;2023-04-24T09:45:49;17.90;99.90
40638;DHT22;26336;44.696;10.622;2023-04-24T09:48:53;18.00;99.90
40638;DHT22;26336;44.696;10.622;2023-04-24T09:52:03;18.00;99.90
40638;DHT22;26336;44.696;10.622;2023-04-24T09:55:11;18.00;99.90
40638;DHT22;26336;44.696;10.622;2023-04-24T09:58:15;17.90;99.90
40638;DHT22;26336;44.696;10.622;2023-04-24T10:01:31;17.90;99.90
40638;DHT22;26336;44.696;10.622;2023-04-24T10:04:35;18.00;99.90
40638;DHT22;26336;44.696;10.622;2023-04-24T10:07:39;18.00;99.90
40638;DHT22;26336;44.696;10.622;2023-04-24T10:10:43;18.00;99.90
40638;DHT22;26336;44.696;10.622;2023-04-24T10:13:47;18.10;99.90
40638;DHT22;26336;44.696;10.622;2023-04-24T10:16:55;18.10;99.90
40638;DHT22;26336;44.696;10.622;2023-04-24T10:20:00;18.20;99.90
40638;DHT22;26336;44.696;10.622;2023-04-24T10:23:04;18.20;99.90
40638;DHT22;26336;44.696;10.622;2023-04-24T10:26:09;18.20;99.90
40638;DHT22;26336;44.696;10.622;2023-04-24T10:29:13;18.20;99.90
40638;DHT22;26336;44.696;10.622;2023-04-24T10:32:18;18.20;99.90
40638;DHT22;26336;44.696;10.622;2023-04-24T10:35:22;18.20;99.90
40638;DHT22;26336;44.696;10.622;2023-04-24T10:38:30;18.30;99.90
40638;DHT22;26336;44.696;10.622;2023-04-24T10:41:36;18.40;99.90
40638;DHT22;26336;44.696;10.622;2023-04-24T10:44:40;18.50;99.90
40638;DHT22;26336;44.696;10.622;2023-04-24T10:48:03;18.60;99.90
40638;DHT22;26336;44.696;10.622;2023-04-24T10:51:10;18.60;99.90
40638;DHT22;26336;44.696;10.622;2023-04-24T10:54:24;18.60;99.90
40638;DHT22;26336;44.696;10.622;2023-04-24T10:57:28;18.70;99.90
40638;DHT22;26336;44.696;10.622;2023-04-24T11:00:36;18.90;99.90
40638;DHT22;26336;44.696;10.622;2023-04-24T11:03:40;18.90;99.90
40638;DHT22;26336;44.696;10.622;2023-04-24T11:06:53;19.00;99.90
40638;DHT22;26336;44.696;10.622;2023-04-24T11:09:58;19.00;99.90
40638;DHT22;26336;44.696;10.622;2023-04-24T11:13:02;19.10;99.90
40638;DHT22;26336;44.696;10.622;2023-04-24T11:16:12;19.20;99.90
40638;DHT22;26336;44.696;10.622;2023-04-24T11:19:18;19.20;99.90
40638;DHT22;26336;44.696;10.622;2023-04-24T11:22:22;19.30;99.90
40638;DHT22;26336;44.696;10.622;2023-04-24T11:25:28;19.30;99.90
40638;DHT22;26336;44.696;10.622;2023-04-24T11:28:33;19.40;99.90
40638;DHT22;26336;44.696;10.622;2023-04-24T11:31:38;19.50;99.90
40638;DHT22;26336;44.696;10.622;2023-04-24T11:34:45;19.60;99.90
40638;DHT22;26336;44.696;10.622;2023-04-24T11:37:49;19.70;99.90
40638;DHT22;26336;44.696;10.622;2023-04-24T11:40:53;19.80;99.90
40638;DHT22;26336;44.696;10.622;2023-04-24T11:43:57;19.90;99.70
40638;DHT22;26336;44.696;10.622;2023-04-24T11:47:01;19.90;99.50
40638;DHT22;26336;44.696;10.622;2023-04-24T11:50:10;20.00;99.60
40638;DHT22;26336;44.696;10.622;2023-04-24T11:53:14;20.00;99.30
40638;DHT22;26336;44.696;10.622;2023-04-24T11:56:18;20.00;98.60
40638;DHT22;26336;44.696;10.622;2023-04-24T11:59:23;20.10;98.60
40638;DHT22;26336;44.696;10.622;2023-04-24T12:02:27;20.10;98.70
40638;DHT22;26336;44.696;10.622;2023-04-24T12:05:30;20.10;98.30
40638;DHT22;26336;44.696;10.622;2023-04-24T12:08:35;20.10;98.00
40638;DHT22;26336;44.696;10.622;2023-04-24T12:11:51;20.20;98.00
40638;DHT22;26336;44.696;10.622;2023-04-24T12:15:01;20.20;97.80
40638;DHT22;26336;44.696;10.622;2023-04-24T12:18:11;20.30;97.70
40638;DHT22;26336;44.696;10.622;2023-04-24T12:21:19;20.30;97.50
40638;DHT22;26336;44.696;10.622;2023-04-24T12:24:24;20.30;96.40
40638;DHT22;26336;44.696;10.622;2023-04-24T12:27:29;20.30;97.00
40638;DHT22;26336;44.696;10.622;2023-04-24T12:30:34;20.40;96.90
40638;DHT22;26336;44.696;10.622;2023-04-24T12:33:38;20.40;96.70
40638;DHT22;26336;44.696;10.622;2023-04-24T12:36:41;20.50;96.80
40638;DHT22;26336;44.696;10.622;2023-04-24T12:40:01;20.50;96.30
40638;DHT22;26336;44.696;10.622;2023-04-24T12:43:15;20.50;96.60
40638;DHT22;26336;44.696;10.622;2023-04-24T12:46:19;20.60;96.80
40638;DHT22;26336;44.696;10.622;2023-04-24T12:49:23;20.60;97.20
40638;DHT22;26336;44.696;10.622;2023-04-24T12:52:28;20.70;96.80
40638;DHT22;26336;44.696;10.622;2023-04-24T12:55:31;20.80;96.60
40638;DHT22;26336;44.696;10.622;2023-04-24T12:58:35;20.80;96.10
40638;DHT22;26336;44.696;10.622;2023-04-24T13:01:40;20.80;95.80
40638;DHT22;26336;44.696;10.622;2023-04-24T13:04:44;20.80;95.30
40638;DHT22;26336;44.696;10.622;2023-04-24T13:07:48;20.80;95.90
40638;DHT22;26336;44.696;10.622;2023-04-24T13:10:51;20.90;96.10
40638;DHT22;26336;44.696;10.622;2023-04-24T13:13:57;20.90;94.90
40638;DHT22;26336;44.696;10.622;2023-04-24T13:17:01;20.90;95.30
40638;DHT22;26336;44.696;10.622;2023-04-24T13:20:06;20.90;94.70
40638;DHT22;26336;44.696;10.622;2023-04-24T13:23:10;20.90;95.70
40638;DHT22;26336;44.696;10.622;2023-04-24T13:26:14;20.90;95.50
40638;DHT22;26336;44.696;10.622;2023-04-24T13:29:18;20.90;95.30
40638;DHT22;26336;44.696;10.622;2023-04-24T13:32:22;20.80;95.90
40638;DHT22;26336;44.696;10.622;2023-04-24T13:35:26;20.80;96.00
40638;DHT22;26336;44.696;10.622;2023-04-24T13:38:30;20.80;95.60
40638;DHT22;26336;44.696;10.622;2023-04-24T13:41:33;20.80;94.80
40638;DHT22;26336;44.696;10.622;2023-04-24T13:44:37;20.80;95.20
40638;DHT22;26336;44.696;10.622;2023-04-24T13:47:41;20.80;94.70
40638;DHT22;26336;44.696;10.622;2023-04-24T13:50:45;20.90;95.00
40638;DHT22;26336;44.696;10.622;2023-04-24T13:53:51;20.90;94.40
40638;DHT22;26336;44.696;10.622;2023-04-24T13:56:57;20.90;94.80
40638;DHT22;26336;44.696;10.622;2023-04-24T14:00:01;20.80;94.80
40638;DHT22;26336;44.696;10.622;2023-04-24T14:03:11;20.80;95.00
40638;DHT22;26336;44.696;10.622;2023-04-24T14:06:15;20.90;95.90
40638;DHT22;26336;44.696;10.622;2023-04-24T14:09:18;21.00;95.70
40638;DHT22;26336;44.696;10.622;2023-04-24T14:12:22;21.00;95.60
40638;DHT22;26336;44.696;10.622;2023-04-24T14:15:27;21.00;95.10
40638;DHT22;26336;44.696;10.622;2023-04-24T14:18:31;21.00;95.40
40638;DHT22;26336;44.696;10.622;2023-04-24T14:21:35;21.00;94.90
40638;DHT22;26336;44.696;10.622;2023-04-24T14:24:39;21.00;95.50
40638;DHT22;26336;44.696;10.622;2023-04-24T14:27:43;20.90;95.60
40638;DHT22;26336;44.696;10.622;2023-04-24T14:30:47;21.00;95.60
40638;DHT22;26336;44.696;10.622;2023-04-24T14:33:51;21.00;96.10
40638;DHT22;26336;44.696;10.622;2023-04-24T14:36:58;20.90;95.60
40638;DHT22;26336;44.696;10.622;2023-04-24T14:40:02;21.00;95.10
40638;DHT22;26336;44.696;10.622;2023-04-24T14:43:07;20.90;95.30
40638;DHT22;26336;44.696;10.622;2023-04-24T14:46:11;21.00;95.40
40638;DHT22;26336;44.696;10.622;2023-04-24T14:49:14;20.90;95.00
40638;DHT22;26336;44.696;10.622;2023-04-24T14:52:18;20.90;95.20
40638;DHT22;26336;44.696;10.622;2023-04-24T14:55:22;20.90;95.20
40638;DHT22;26336;44.696;10.622;2023-04-24T14:58:26;21.00;90.10
40638;DHT22;26336;44.696;10.622;2023-04-24T15:01:29;21.00;86.30
40638;DHT22;26336;44.696;10.622;2023-04-24T15:04:33;21.00;84.70
40638;DHT22;26336;44.696;10.622;2023-04-24T15:07:37;20.90;84.60
40638;DHT22;26336;44.696;10.622;2023-04-24T15:10:41;21.00;85.30
40638;DHT22;26336;44.696;10.622;2023-04-24T15:13:44;21.00;86.50
40638;DHT22;26336;44.696;10.622;2023-04-24T15:16:49;21.00;85.80
40638;DHT22;26336;44.696;10.622;2023-04-24T15:19:52;21.10;83.40
40638;DHT22;26336;44.696;10.622;2023-04-24T15:22:56;21.10;82.30
40638;DHT22;26336;44.696;10.622;2023-04-24T15:25:59;21.10;80.50
40638;DHT22;26336;44.696;10.622;2023-04-24T15:29:04;21.10;80.80
40638;DHT22;26336;44.696;10.622;2023-04-24T15:32:09;21.10;82.00
40638;DHT22;26336;44.696;10.622;2023-04-24T15:35:13;21.10;81.00
40638;DHT22;26336;44.696;10.622;2023-04-24T15:38:17;21.10;83.00
40638;DHT22;26336;44.696;10.622;2023-04-24T15:41:21;21.10;82.50
40638;DHT22;26336;44.696;10.622;2023-04-24T15:44:25;21.00;81.60
40638;DHT22;26336;44.696;10.622;2023-04-24T15:47:29;21.00;79.90
40638;DHT22;26336;44.696;10.622;2023-04-24T15:50:33;20.90;79.60
40638;DHT22;26336;44.696;10.622;2023-04-24T15:53:37;20.80;81.60
40638;DHT22;26336;44.696;10.622;2023-04-24T15:56:41;20.80;82.60
40638;DHT22;26336;44.696;10.622;2023-04-24T15:59:45;20.70;81.90
40638;DHT22;26336;44.696;10.622;2023-04-24T16:02:49;20.70;81.70
40638;DHT22;26336;44.696;10.622;2023-04-24T16:05:54;20.70;82.50
40638;DHT22;26336;44.696;10.622;2023-04-24T16:08:57;20.70;83.20
40638;DHT22;26336;44.696;10.622;2023-04-24T16:12:01;20.70;83.90
40638;DHT22;26336;44.696;10.622;2023-04-24T16:15:05;20.70;83.70
40638;DHT22;26336;44.696;10.622;2023-04-24T16:18:08;20.60;83.30
40638;DHT22;26336;44.696;10.622;2023-04-24T16:21:12;20.60;84.10
40638;DHT22;26336;44.696;10.622;2023-04-24T16:24:16;20.60;83.90
40638;DHT22;26336;44.696;10.622;2023-04-24T16:27:22;20.50;84.70
40638;DHT22;26336;44.696;10.622;2023-04-24T16:30:26;20.50;84.30
40638;DHT22;26336;44.696;10.622;2023-04-24T16:33:30;20.40;85.00
40638;DHT22;26336;44.696;10.622;2023-04-24T16:36:34;20.40;84.40
40638;DHT22;26336;44.696;10.622;2023-04-24T16:39:39;20.40;85.10
40638;DHT22;26336;44.696;10.622;2023-04-24T16:42:46;20.30;85.00
40638;DHT22;26336;44.696;10.622;2023-04-24T16:45:54;20.30;85.80
40638;DHT22;26336;44.696;10.622;2023-04-24T16:48:58;20.20;85.40
40638;DHT22;26336;44.696;10.622;2023-04-24T16:52:02;20.10;85.60
40638;DHT22;26336;44.696;10.622;2023-04-24T16:55:05;20.10;85.90
40638;DHT22;26336;44.696;10.622;2023-04-24T16:58:09;20.10;86.60
40638;DHT22;26336;44.696;10.622;2023-04-24T17:01:13;20.10;86.30
40638;DHT22;26336;44.696;10.622;2023-04-24T17:04:17;20.00;86.40
40638;DHT22;26336;44.696;10.622;2023-04-24T17:07:21;20.00;86.50
40638;DHT22;26336;44.696;10.622;2023-04-24T17:10:25;20.00;86.90
40638;DHT22;26336;44.696;10.622;2023-04-24T17:13:29;20.00;87.10
40638;DHT22;26336;44.696;10.622;2023-04-24T17:16:33;19.90;87.10
40638;DHT22;26336;44.696;10.622;2023-04-24T17:19:36;19.90;87.20
40638;DHT22;26336;44.696;10.622;2023-04-24T17:22:40;19.90;87.40
40638;DHT22;26336;44.696;10.622;2023-04-24T17:25:43;19.90;87.90
40638;DHT22;26336;44.696;10.622;2023-04-24T17:28:47;19.90;88.20
40638;DHT22;26336;44.696;10.622;2023-04-24T17:31:51;19.90;88.70
40638;DHT22;26336;44.696;10.622;2023-04-24T17:34:55;19.80;89.00
40638;DHT22;26336;44.696;10.622;2023-04-24T17:37:58;19.70;89.70
40638;DHT22;26336;44.696;10.622;2023-04-24T17:41:02;19.70;90.00
40638;DHT22;26336;44.696;10.622;2023-04-24T17:44:06;19.60;90.10
40638;DHT22;26336;44.696;10.622;2023-04-24T17:47:10;19.60;90.20
40638;DHT22;26336;44.696;10.622;2023-04-24T17:50:14;19.60;90.30
40638;DHT22;26336;44.696;10.622;2023-04-24T17:53:18;19.60;90.40
40638;DHT22;26336;44.696;10.622;2023-04-24T17:56:22;19.60;90.60
40638;DHT22;26336;44.696;10.622;2023-04-24T17:59:27;19.50;90.60
40638;DHT22;26336;44.696;10.622;2023-04-24T18:02:31;19.50;90.70
40638;DHT22;26336;44.696;10.622;2023-04-24T18:05:35;19.50;91.00
40638;DHT22;26336;44.696;10.622;2023-04-24T18:08:39;19.40;90.90
40638;DHT22;26336;44.696;10.622;2023-04-24T18:11:43;19.40;91.10
40638;DHT22;26336;44.696;10.622;2023-04-24T18:14:49;19.30;91.20
40638;DHT22;26336;44.696;10.622;2023-04-24T18:17:56;19.30;91.30
40638;DHT22;26336;44.696;10.622;2023-04-24T18:21:03;19.30;91.40
40638;DHT22;26336;44.696;10.622;2023-04-24T18:24:07;19.20;91.50
40638;DHT22;26336;44.696;10.622;2023-04-24T18:27:16;19.10;91.60
40638;DHT22;26336;44.696;10.622;2023-04-24T18:30:19;19.10;91.80
40638;DHT22;26336;44.696;10.622;2023-04-24T18:33:24;19.10;91.70
40638;DHT22;26336;44.696;10.622;2023-04-24T18:36:28;19.10;92.00
40638;DHT22;26336;44.696;10.622;2023-04-24T18:39:32;19.00;91.90
40638;DHT22;26336;44.696;10.622;2023-04-24T18:42:36;19.00;91.90
40638;DHT22;26336;44.696;10.622;2023-04-24T18:45:40;19.00;92.00
40638;DHT22;26336;44.696;10.622;2023-04-24T18:48:44;18.90;91.80
40638;DHT22;26336;44.696;10.622;2023-04-24T18:51:51;18.90;91.80
40638;DHT22;26336;44.696;10.622;2023-04-24T18:54:55;18.90;91.90
40638;DHT22;26336;44.696;10.622;2023-04-24T18:57:59;18.80;92.00
40638;DHT22;26336;44.696;10.622;2023-04-24T19:01:05;18.80;92.00
40638;DHT22;26336;44.696;10.622;2023-04-24T19:04:10;18.80;91.70
40638;DHT22;26336;44.696;10.622;2023-04-24T19:07:14;18.70;91.60
40638;DHT22;26336;44.696;10.622;2023-04-24T19:10:17;18.70;91.70